createdAt,value
2018-06-29T00:00:45.256Z,1015.29
2018-06-29T00:01:45.283Z,1015.28
2018-06-29T00:02:45.302Z,1015.28
2018-06-29T00:03:45.325Z,1015.31
2018-06-29T00:04:45.352Z,1015.30
2018-06-29T00:05:45.376Z,1015.32
2018-06-29T00:06:45.396Z,1015.29
2018-06-29T00:07:45.420Z,1015.30
2018-06-29T00:08:45.446Z,1015.33
2018-06-29T00:09:45.469Z,1015.29
2018-06-29T00:10:45.491Z,1015.27
2018-06-29T00:11:45.516Z,1015.28
2018-06-29T00:12:45.537Z,1015.28
2018-06-29T00:13:45.559Z,1015.30
2018-06-29T00:14:45.587Z,1015.28
2018-06-29T00:15:45.606Z,1015.29
2018-06-29T00:16:45.630Z,1015.28
2018-06-29T00:17:45.653Z,1015.29
2018-06-29T00:18:45.675Z,1015.30
2018-06-29T00:19:45.699Z,1015.29
2018-06-29T00:20:45.725Z,1015.26
2018-06-29T00:21:45.749Z,1015.28
2018-06-29T00:22:45.772Z,1015.27
2018-06-29T00:23:45.791Z,1015.30
2018-06-29T00:24:45.818Z,1015.31
2018-06-29T00:25:45.842Z,1015.30
2018-06-29T00:26:46.046Z,1015.32
2018-06-29T00:27:45.892Z,1015.27
2018-06-29T00:28:46.077Z,1015.30
2018-06-29T00:29:45.931Z,1015.23
2018-06-29T00:30:45.954Z,1015.21
2018-06-29T00:31:45.979Z,1015.16
2018-06-29T00:32:46.001Z,1015.20
2018-06-29T00:33:46.027Z,1015.17
2018-06-29T00:34:46.050Z,1015.17
2018-06-29T00:35:46.070Z,1015.12
2018-06-29T00:36:46.097Z,1015.14
2018-06-29T00:37:46.119Z,1015.11
2018-06-29T00:38:46.143Z,1015.08
2018-06-29T00:39:46.165Z,1015.09
2018-06-29T00:40:46.189Z,1015.13
2018-06-29T00:41:46.213Z,1015.07
2018-06-29T00:42:46.231Z,1015.11
2018-06-29T00:43:46.257Z,1015.07
2018-06-29T00:44:46.278Z,1015.06
2018-06-29T00:45:46.317Z,1015.13
2018-06-29T00:46:46.324Z,1015.11
2018-06-29T00:47:46.349Z,1015.16
2018-06-29T00:48:46.370Z,1015.14
2018-06-29T00:49:46.393Z,1015.15
2018-06-29T00:50:46.418Z,1015.09
2018-06-29T00:51:46.442Z,1015.10
2018-06-29T00:52:46.462Z,1015.11
2018-06-29T00:53:46.488Z,1015.10
2018-06-29T00:54:46.508Z,1015.11
2018-06-29T00:55:46.535Z,1015.11
2018-06-29T00:56:46.560Z,1015.12
2018-06-29T00:57:46.578Z,1015.10
2018-06-29T00:58:46.600Z,1015.09
2018-06-29T00:59:46.625Z,1015.10
2018-06-29T01:00:46.648Z,1015.10
2018-06-29T01:01:46.673Z,1015.12
2018-06-29T01:02:46.691Z,1015.13
2018-06-29T01:03:46.716Z,1015.13
2018-06-29T01:04:46.740Z,1015.13
2018-06-29T01:05:46.763Z,1015.11
2018-06-29T01:06:46.784Z,1015.14
2018-06-29T01:07:46.808Z,1015.10
2018-06-29T01:08:46.832Z,1015.11
2018-06-29T01:09:46.855Z,1015.13
2018-06-29T01:10:46.881Z,1015.10
2018-06-29T01:11:46.900Z,1015.09
2018-06-29T01:12:46.924Z,1015.11
2018-06-29T01:13:46.948Z,1015.09
2018-06-29T01:14:46.967Z,1015.06
2018-06-29T01:15:46.992Z,1015.09
2018-06-29T01:16:47.016Z,1015.06
2018-06-29T01:17:47.034Z,1015.08
2018-06-29T01:18:47.060Z,1015.11
2018-06-29T01:19:47.082Z,1015.11
2018-06-29T01:20:47.104Z,1015.07
2018-06-29T01:21:47.125Z,1015.08
2018-06-29T01:22:47.149Z,1015.09
2018-06-29T01:23:47.170Z,1015.05
2018-06-29T01:24:47.194Z,1015.07
2018-06-29T01:25:47.217Z,1015.07
2018-06-29T01:26:47.238Z,1015.02
2018-06-29T01:27:47.264Z,1015.05
2018-06-29T01:28:47.291Z,1015.05
2018-06-29T01:29:47.306Z,1015.08
2018-06-29T01:30:47.330Z,1015.09
2018-06-29T01:31:47.351Z,1015.08
2018-06-29T01:32:47.376Z,1015.07
2018-06-29T01:33:47.403Z,1015.09
2018-06-29T01:34:47.419Z,1015.11
2018-06-29T01:35:47.442Z,1015.07
2018-06-29T01:36:47.468Z,1015.09
2018-06-29T01:37:47.487Z,1015.12
2018-06-29T01:38:47.512Z,1015.07
2018-06-29T01:39:47.538Z,1015.09
2018-06-29T01:40:47.557Z,1015.04
2018-06-29T01:41:47.581Z,1015.03
2018-06-29T01:42:47.600Z,1015.04
2018-06-29T01:43:47.624Z,1015.05
2018-06-29T01:44:47.648Z,1015.08
2018-06-29T01:45:47.671Z,1015.05
2018-06-29T01:46:47.692Z,1015.06
2018-06-29T01:47:47.712Z,1015.03
2018-06-29T01:48:47.737Z,1015.00
2018-06-29T01:49:47.758Z,1014.98
2018-06-29T01:50:47.780Z,1015.01
2018-06-29T01:51:47.804Z,1014.95
2018-06-29T01:52:47.829Z,1014.95
2018-06-29T01:53:47.848Z,1014.91
2018-06-29T01:54:47.875Z,1014.92
2018-06-29T01:55:47.892Z,1014.89
2018-06-29T01:56:47.917Z,1014.90
2018-06-29T01:57:47.942Z,1014.91
2018-06-29T01:58:47.959Z,1014.87
2018-06-29T01:59:47.985Z,1014.92
2018-06-29T02:00:48.005Z,1014.88
2018-06-29T02:01:48.028Z,1014.89
2018-06-29T02:02:48.050Z,1014.85
2018-06-29T02:03:48.072Z,1014.83
2018-06-29T02:04:48.100Z,1014.86
2018-06-29T02:05:48.117Z,1014.85
2018-06-29T02:06:48.141Z,1014.83
2018-06-29T02:07:48.164Z,1014.87
2018-06-29T02:08:48.187Z,1014.89
2018-06-29T02:09:48.208Z,1014.85
2018-06-29T02:10:48.231Z,1014.84
2018-06-29T02:11:48.251Z,1014.86
2018-06-29T02:12:48.273Z,1014.86
2018-06-29T02:13:48.297Z,1014.83
2018-06-29T02:14:48.320Z,1014.84
2018-06-29T02:15:48.344Z,1014.81
2018-06-29T02:16:48.363Z,1014.88
2018-06-29T02:17:48.388Z,1014.82
2018-06-29T02:18:48.414Z,1014.91
2018-06-29T02:19:48.431Z,1014.93
2018-06-29T02:20:48.453Z,1014.89
2018-06-29T02:21:48.477Z,1014.87
2018-06-29T02:22:48.497Z,1014.91
2018-06-29T02:23:48.521Z,1014.88
2018-06-29T02:24:48.541Z,1014.89
2018-06-29T02:25:48.564Z,1014.87
2018-06-29T02:26:48.584Z,1014.89
2018-06-29T02:27:48.607Z,1014.87
2018-06-29T02:28:48.629Z,1014.86
2018-06-29T02:29:48.651Z,1014.85
2018-06-29T02:30:48.796Z,1014.82
2018-06-29T02:31:48.696Z,1014.79
2018-06-29T02:32:48.720Z,1014.78
2018-06-29T02:33:48.742Z,1014.76
2018-06-29T02:34:48.762Z,1014.73
2018-06-29T02:35:48.791Z,1014.78
2018-06-29T02:36:48.809Z,1014.75
2018-06-29T02:37:48.831Z,1014.68
2018-06-29T02:38:48.852Z,1014.71
2018-06-29T02:39:48.872Z,1014.72
2018-06-29T02:40:48.899Z,1014.70
2018-06-29T02:41:48.917Z,1014.64
2018-06-29T02:42:48.941Z,1014.65
2018-06-29T02:43:48.963Z,1014.61
2018-06-29T02:44:48.985Z,1014.68
2018-06-29T02:45:49.009Z,1014.69
2018-06-29T02:46:49.034Z,1014.67
2018-06-29T02:47:49.055Z,1014.68
2018-06-29T02:48:49.075Z,1014.66
2018-06-29T02:49:49.093Z,1014.74
2018-06-29T02:50:49.117Z,1014.71
2018-06-29T02:51:49.192Z,1014.76
2018-06-29T02:52:49.162Z,1014.76
2018-06-29T02:53:49.185Z,1014.75
2018-06-29T02:54:49.203Z,1014.72
2018-06-29T02:55:49.233Z,1014.77
2018-06-29T02:56:49.251Z,1014.78
2018-06-29T02:57:49.269Z,1014.80
2018-06-29T02:58:49.294Z,1014.74
2018-06-29T02:59:49.316Z,1014.75
2018-06-29T03:00:49.339Z,1014.82
2018-06-29T03:01:49.358Z,1014.82
2018-06-29T03:02:49.379Z,1014.82
2018-06-29T03:03:49.401Z,1014.79
2018-06-29T03:04:49.425Z,1014.86
2018-06-29T03:05:49.448Z,1014.85
2018-06-29T03:06:49.475Z,1014.88
2018-06-29T03:07:49.491Z,1014.87
2018-06-29T03:08:49.511Z,1014.83
2018-06-29T03:09:49.536Z,1014.86
2018-06-29T03:10:49.576Z,1014.84
2018-06-29T03:11:49.576Z,1014.85
2018-06-29T03:12:49.602Z,1014.87
2018-06-29T03:13:49.620Z,1014.89
2018-06-29T03:14:49.644Z,1014.89
2018-06-29T03:15:49.665Z,1014.85
2018-06-29T03:16:49.685Z,1014.81
2018-06-29T03:17:49.708Z,1014.86
2018-06-29T03:18:49.733Z,1014.85
2018-06-29T03:19:49.757Z,1014.86
2018-06-29T03:20:49.773Z,1014.81
2018-06-29T03:21:49.797Z,1014.83
2018-06-29T03:22:49.819Z,1014.79
2018-06-29T03:23:49.840Z,1014.81
2018-06-29T03:24:49.858Z,1014.79
2018-06-29T03:25:49.885Z,1014.84
2018-06-29T03:26:49.905Z,1014.85
2018-06-29T03:27:49.924Z,1014.84
2018-06-29T03:28:49.949Z,1014.81
2018-06-29T03:29:49.968Z,1014.77
2018-06-29T03:30:49.989Z,1014.76
2018-06-29T03:31:50.013Z,1014.78
2018-06-29T03:32:50.033Z,1014.76
2018-06-29T03:33:50.060Z,1014.76
2018-06-29T03:34:50.075Z,1014.74
2018-06-29T03:35:50.100Z,1014.70
2018-06-29T03:36:50.120Z,1014.74
2018-06-29T03:37:50.142Z,1014.71
2018-06-29T03:38:50.167Z,1014.69
2018-06-29T03:39:50.184Z,1014.70
2018-06-29T03:40:50.208Z,1014.71
2018-06-29T03:41:50.228Z,1014.71
2018-06-29T03:42:50.253Z,1014.71
2018-06-29T03:43:50.270Z,1014.76
2018-06-29T03:44:50.294Z,1014.72
2018-06-29T03:45:50.317Z,1014.70
2018-06-29T03:46:50.337Z,1014.73
2018-06-29T03:47:50.357Z,1014.71
2018-06-29T03:48:50.381Z,1014.66
2018-06-29T03:49:50.400Z,1014.62
2018-06-29T03:50:50.424Z,1014.66
2018-06-29T03:51:50.442Z,1014.64
2018-06-29T03:52:50.467Z,1014.66
2018-06-29T03:53:50.490Z,1014.64
2018-06-29T03:54:50.509Z,1014.63
2018-06-29T03:55:50.531Z,1014.62
2018-06-29T03:56:50.550Z,1014.61
2018-06-29T03:57:50.572Z,1014.64
2018-06-29T03:58:50.593Z,1014.65
2018-06-29T03:59:50.617Z,1014.68
2018-06-29T04:00:50.639Z,1014.66
2018-06-29T04:01:50.659Z,1014.68
2018-06-29T04:02:50.678Z,1014.67
2018-06-29T04:03:50.702Z,1014.69
2018-06-29T04:04:50.726Z,1014.68
2018-06-29T04:05:50.745Z,1014.69
2018-06-29T04:06:50.769Z,1014.68
2018-06-29T04:07:50.786Z,1014.72
2018-06-29T04:08:50.814Z,1014.70
2018-06-29T04:09:50.834Z,1014.73
2018-06-29T04:10:50.852Z,1014.73
2018-06-29T04:11:50.877Z,1014.75
2018-06-29T04:12:50.933Z,1014.71
2018-06-29T04:13:50.920Z,1014.73
2018-06-29T04:14:50.938Z,1014.69
2018-06-29T04:15:50.961Z,1014.73
2018-06-29T04:16:50.982Z,1014.74
2018-06-29T04:17:51.024Z,1014.72
2018-06-29T04:18:51.028Z,1014.73
2018-06-29T04:19:51.046Z,1014.76
2018-06-29T04:20:51.073Z,1014.80
2018-06-29T04:21:51.090Z,1014.77
2018-06-29T04:22:51.113Z,1014.78
2018-06-29T04:23:51.134Z,1014.79
2018-06-29T04:24:51.155Z,1014.79
2018-06-29T04:25:51.177Z,1014.84
2018-06-29T04:26:51.201Z,1014.82
2018-06-29T04:27:51.220Z,1014.79
2018-06-29T04:28:51.243Z,1014.76
2018-06-29T04:29:51.263Z,1014.81
2018-06-29T04:30:51.288Z,1014.79
2018-06-29T04:31:51.308Z,1014.81
2018-06-29T04:32:51.354Z,1014.80
2018-06-29T04:33:51.353Z,1014.76
2018-06-29T04:34:51.375Z,1014.79
2018-06-29T04:35:51.395Z,1014.81
2018-06-29T04:36:51.418Z,1014.79
2018-06-29T04:37:51.437Z,1014.78
2018-06-29T04:38:51.462Z,1014.82
2018-06-29T04:39:51.484Z,1014.82
2018-06-29T04:40:51.505Z,1014.79
2018-06-29T04:41:51.524Z,1014.75
2018-06-29T04:42:51.553Z,1014.74
2018-06-29T04:43:51.570Z,1014.72
2018-06-29T04:44:51.590Z,1014.71
2018-06-29T04:45:51.615Z,1014.75
2018-06-29T04:46:51.633Z,1014.71
2018-06-29T04:47:51.657Z,1014.75
2018-06-29T04:48:51.676Z,1014.73
2018-06-29T04:49:51.699Z,1014.73
2018-06-29T04:50:51.721Z,1014.68
2018-06-29T04:51:51.744Z,1014.67
2018-06-29T04:52:51.769Z,1014.64
2018-06-29T04:53:51.790Z,1014.60
2018-06-29T04:54:51.811Z,1014.57
2018-06-29T04:55:51.832Z,1014.60
2018-06-29T04:56:51.855Z,1014.59
2018-06-29T04:57:51.877Z,1014.61
2018-06-29T04:58:51.903Z,1014.59
2018-06-29T04:59:51.916Z,1014.64
2018-06-29T05:00:51.960Z,1014.61
2018-06-29T05:01:51.964Z,1014.63
2018-06-29T05:02:51.985Z,1014.67
2018-06-29T05:03:52.011Z,1014.66
2018-06-29T05:04:52.029Z,1014.67
2018-06-29T05:05:52.062Z,1014.67
2018-06-29T05:06:52.074Z,1014.74
2018-06-29T05:07:52.100Z,1014.74
2018-06-29T05:08:52.116Z,1014.73
2018-06-29T05:09:52.144Z,1014.74
2018-06-29T05:10:52.161Z,1014.77
2018-06-29T05:11:52.181Z,1014.72
2018-06-29T05:12:52.207Z,1014.76
2018-06-29T05:13:52.229Z,1014.78
2018-06-29T05:14:52.250Z,1014.76
2018-06-29T05:15:52.271Z,1014.81
2018-06-29T05:16:52.294Z,1014.73
2018-06-29T05:17:52.316Z,1014.75
2018-06-29T05:18:52.338Z,1014.72
2018-06-29T05:19:52.358Z,1014.72
2018-06-29T05:20:52.383Z,1014.73
2018-06-29T05:21:52.403Z,1014.71
2018-06-29T05:22:52.426Z,1014.75
2018-06-29T05:23:52.447Z,1014.79
2018-06-29T05:24:52.476Z,1014.77
2018-06-29T05:25:52.492Z,1014.73
2018-06-29T05:26:52.517Z,1014.71
2018-06-29T05:27:52.542Z,1014.73
2018-06-29T05:28:52.560Z,1014.75
2018-06-29T05:29:52.583Z,1014.73
2018-06-29T05:30:52.602Z,1014.82
2018-06-29T05:31:52.626Z,1014.79
2018-06-29T05:32:53.001Z,1014.79
2018-06-29T05:33:52.671Z,1014.78
2018-06-29T05:34:52.693Z,1014.76
2018-06-29T05:35:52.752Z,1014.77
2018-06-29T05:36:52.737Z,1014.79
2018-06-29T05:37:52.760Z,1014.81
2018-06-29T05:38:52.783Z,1014.77
2018-06-29T05:39:52.808Z,1014.77
2018-06-29T05:40:52.829Z,1014.75
2018-06-29T05:41:52.852Z,1014.77
2018-06-29T05:42:52.873Z,1014.81
2018-06-29T05:43:52.895Z,1014.83
2018-06-29T05:44:52.918Z,1014.84
2018-06-29T05:45:52.938Z,1014.89
2018-06-29T05:46:53.017Z,1014.90
2018-06-29T05:47:52.982Z,1014.92
2018-06-29T05:48:53.006Z,1014.90
2018-06-29T05:49:53.030Z,1014.92
2018-06-29T05:50:53.052Z,1014.89
2018-06-29T05:51:53.075Z,1014.92
2018-06-29T05:52:53.111Z,1014.89
2018-06-29T05:53:53.120Z,1014.91
2018-06-29T05:54:53.142Z,1014.93
2018-06-29T05:55:53.169Z,1014.96
2018-06-29T05:56:53.188Z,1014.92
2018-06-29T05:57:53.214Z,1014.97
2018-06-29T05:58:53.236Z,1014.93
2018-06-29T05:59:53.261Z,1014.91
2018-06-29T06:00:53.286Z,1014.98
2018-06-29T06:01:53.332Z,1014.97
2018-06-29T06:02:53.330Z,1014.91
2018-06-29T06:03:53.357Z,1014.92
2018-06-29T06:04:53.378Z,1014.93
2018-06-29T06:05:53.402Z,1014.95
2018-06-29T06:06:53.426Z,1014.95
2018-06-29T06:07:53.453Z,1014.94
2018-06-29T06:08:53.478Z,1014.98
2018-06-29T06:09:53.501Z,1014.95
2018-06-29T06:10:53.625Z,1014.96
2018-06-29T06:11:53.553Z,1014.99
2018-06-29T06:12:53.578Z,1014.99
2018-06-29T06:13:53.604Z,1014.98
2018-06-29T06:14:53.627Z,1014.97
2018-06-29T06:15:53.650Z,1014.96
2018-06-29T06:16:53.676Z,1014.99
2018-06-29T06:17:53.704Z,1014.92
2018-06-29T06:18:53.726Z,1014.93
2018-06-29T06:19:53.752Z,1014.83
2018-06-29T06:20:53.780Z,1014.88
2018-06-29T06:21:53.846Z,1014.89
2018-06-29T06:22:53.830Z,1014.89
2018-06-29T06:23:53.857Z,1014.83
2018-06-29T06:24:53.988Z,1014.89
2018-06-29T06:25:53.916Z,1014.86
2018-06-29T06:26:53.933Z,1014.91
2018-06-29T06:27:53.960Z,1014.93
2018-06-29T06:28:53.990Z,1014.94
2018-06-29T06:29:54.015Z,1014.95
2018-06-29T06:30:54.040Z,1014.93
2018-06-29T06:31:54.065Z,1014.98
2018-06-29T06:32:54.094Z,1014.96
2018-06-29T06:33:54.120Z,1014.96
2018-06-29T06:34:54.145Z,1014.94
2018-06-29T06:35:54.176Z,1014.91
2018-06-29T06:36:54.202Z,1014.96
2018-06-29T06:37:54.227Z,1014.94
2018-06-29T06:38:54.255Z,1014.92
2018-06-29T06:39:54.280Z,1014.93
2018-06-29T06:40:54.308Z,1014.92
2018-06-29T06:41:54.336Z,1014.95
2018-06-29T06:42:54.365Z,1014.91
2018-06-29T06:43:54.389Z,1014.96
2018-06-29T06:44:54.417Z,1014.96
2018-06-29T06:45:54.444Z,1014.97
2018-06-29T06:46:54.981Z,1015.00
2018-06-29T06:47:54.500Z,1015.01
2018-06-29T06:48:54.526Z,1015.00
2018-06-29T06:49:54.555Z,1015.00
2018-06-29T06:50:54.579Z,1015.01
2018-06-29T06:51:54.609Z,1014.99
2018-06-29T06:52:54.636Z,1015.00
2018-06-29T06:53:54.661Z,1014.98
2018-06-29T06:54:54.688Z,1014.98
2018-06-29T06:55:54.718Z,1014.96
2018-06-29T06:56:54.945Z,1014.99
2018-06-29T06:57:54.771Z,1014.94
2018-06-29T06:58:54.796Z,1014.96
2018-06-29T06:59:54.825Z,1014.92
2018-06-29T07:00:54.852Z,1014.90
2018-06-29T07:01:54.883Z,1014.85
2018-06-29T07:02:54.911Z,1014.86
2018-06-29T07:03:54.937Z,1014.85
2018-06-29T07:04:54.966Z,1014.84
2018-06-29T07:05:54.997Z,1014.84
2018-06-29T07:06:55.021Z,1014.83
2018-06-29T07:07:55.049Z,1014.77
2018-06-29T07:08:55.271Z,1014.80
2018-06-29T07:09:55.119Z,1014.77
2018-06-29T07:10:55.135Z,1014.78
2018-06-29T07:11:55.162Z,1014.80
2018-06-29T07:12:55.190Z,1014.85
2018-06-29T07:13:55.214Z,1014.84
2018-06-29T07:14:55.259Z,1014.80
2018-06-29T07:15:55.369Z,1014.81
2018-06-29T07:16:55.338Z,1014.84
2018-06-29T07:17:55.332Z,1014.82
2018-06-29T07:18:55.358Z,1014.82
2018-06-29T07:19:55.384Z,1014.79
2018-06-29T07:20:55.413Z,1014.79
2018-06-29T07:21:55.630Z,1014.79
2018-06-29T07:22:55.472Z,1014.80
2018-06-29T07:23:55.498Z,1014.80
2018-06-29T07:24:55.528Z,1014.82
2018-06-29T07:25:55.555Z,1014.79
2018-06-29T07:26:55.584Z,1014.77
2018-06-29T07:27:55.615Z,1014.81
2018-06-29T07:28:55.640Z,1014.77
2018-06-29T07:29:55.725Z,1014.78
2018-06-29T07:30:55.701Z,1014.81
2018-06-29T07:31:55.737Z,1014.82
2018-06-29T07:32:55.893Z,1014.79
2018-06-29T07:33:57.481Z,1014.76
2018-06-29T07:34:55.877Z,1014.77
2018-06-29T07:35:55.886Z,1014.73
2018-06-29T07:36:55.871Z,1014.72
2018-06-29T07:37:55.963Z,1014.73
2018-06-29T07:38:55.933Z,1014.73
2018-06-29T07:39:55.957Z,1014.69
2018-06-29T07:40:56.110Z,1014.66
2018-06-29T07:41:56.014Z,1014.62
2018-06-29T07:42:56.044Z,1014.65
2018-06-29T07:43:56.073Z,1014.58
2018-06-29T07:44:56.101Z,1014.61
2018-06-29T07:45:56.129Z,1014.57
2018-06-29T07:46:56.160Z,1014.54
2018-06-29T07:47:56.187Z,1014.55
2018-06-29T07:48:56.215Z,1014.54
2018-06-29T07:49:56.243Z,1014.45
2018-06-29T07:50:56.270Z,1014.53
2018-06-29T07:51:56.301Z,1014.50
2018-06-29T07:52:56.392Z,1014.52
2018-06-29T07:53:56.358Z,1014.51
2018-06-29T07:54:56.386Z,1014.50
2018-06-29T07:55:56.410Z,1014.51
2018-06-29T07:56:56.441Z,1014.54
2018-06-29T07:57:56.469Z,1014.54
2018-06-29T07:58:56.497Z,1014.51
2018-06-29T07:59:56.527Z,1014.52
2018-06-29T08:00:56.552Z,1014.50
2018-06-29T08:01:56.584Z,1014.53
2018-06-29T08:02:56.605Z,1014.51
2018-06-29T08:03:56.752Z,1014.47
2018-06-29T08:04:56.660Z,1014.47
2018-06-29T08:05:56.689Z,1014.44
2018-06-29T08:06:56.717Z,1014.42
2018-06-29T08:07:56.744Z,1014.44
2018-06-29T08:08:56.774Z,1014.42
2018-06-29T08:09:56.848Z,1014.41
2018-06-29T08:10:56.823Z,1014.42
2018-06-29T08:11:56.950Z,1014.38
2018-06-29T08:12:56.881Z,1014.41
2018-06-29T08:13:56.928Z,1014.41
2018-06-29T08:14:56.962Z,1014.39
2018-06-29T08:15:56.967Z,1014.41
2018-06-29T08:16:57.017Z,1014.34
2018-06-29T08:17:57.016Z,1014.39
2018-06-29T08:18:57.042Z,1014.37
2018-06-29T08:19:57.183Z,1014.37
2018-06-29T08:20:57.141Z,1014.39
2018-06-29T08:21:57.172Z,1014.38
2018-06-29T08:22:57.185Z,1014.38
2018-06-29T08:23:57.254Z,1014.39
2018-06-29T08:24:57.278Z,1014.33
2018-06-29T08:25:57.261Z,1014.34
2018-06-29T08:26:57.447Z,1014.32
2018-06-29T08:27:57.500Z,1014.31
2018-06-29T08:28:57.376Z,1014.29
2018-06-29T08:29:57.485Z,1014.24
2018-06-29T08:30:57.383Z,1014.25
2018-06-29T08:31:57.398Z,1014.27
2018-06-29T08:32:57.425Z,1014.27
2018-06-29T08:33:57.453Z,1014.22
2018-06-29T08:34:57.478Z,1014.25
2018-06-29T08:35:57.508Z,1014.29
2018-06-29T08:36:57.530Z,1014.26
2018-06-29T08:37:57.558Z,1014.27
2018-06-29T08:38:57.602Z,1014.23
2018-06-29T08:39:57.612Z,1014.27
2018-06-29T08:40:57.642Z,1014.27
2018-06-29T08:41:57.669Z,1014.24
2018-06-29T08:42:57.695Z,1014.23
2018-06-29T08:43:57.723Z,1014.21
2018-06-29T08:44:57.749Z,1014.25
2018-06-29T08:45:57.774Z,1014.24
2018-06-29T08:46:57.918Z,1014.21
2018-06-29T08:47:57.830Z,1014.23
2018-06-29T08:48:57.857Z,1014.24
2018-06-29T08:49:57.883Z,1014.23
2018-06-29T08:50:57.909Z,1014.25
2018-06-29T08:51:57.939Z,1014.21
2018-06-29T08:52:57.964Z,1014.22
2018-06-29T08:53:57.995Z,1014.22
2018-06-29T08:54:58.052Z,1014.20
2018-06-29T08:55:58.050Z,1014.20
2018-06-29T08:56:58.078Z,1014.22
2018-06-29T08:57:58.104Z,1014.17
2018-06-29T08:58:58.131Z,1014.16
2018-06-29T08:59:58.158Z,1014.19
2018-06-29T09:00:58.186Z,1014.24
2018-06-29T09:01:58.214Z,1014.22
2018-06-29T09:02:58.238Z,1014.20
2018-06-29T09:03:58.265Z,1014.25
2018-06-29T09:04:58.344Z,1014.26
2018-06-29T09:05:58.320Z,1014.23
2018-06-29T09:06:58.346Z,1014.22
2018-06-29T09:07:58.374Z,1014.18
2018-06-29T09:08:58.405Z,1014.16
2018-06-29T09:09:58.429Z,1014.17
2018-06-29T09:10:58.502Z,1014.14
2018-06-29T09:11:58.485Z,1014.17
2018-06-29T09:12:58.514Z,1014.14
2018-06-29T09:13:58.540Z,1014.13
2018-06-29T09:14:58.600Z,1014.13
2018-06-29T09:15:58.597Z,1014.11
2018-06-29T09:16:58.625Z,1014.10
2018-06-29T09:17:58.652Z,1014.11
2018-06-29T09:18:58.776Z,1014.10
2018-06-29T09:19:58.705Z,1014.12
2018-06-29T09:20:58.737Z,1014.14
2018-06-29T09:21:58.762Z,1014.15
2018-06-29T09:22:58.788Z,1014.13
2018-06-29T09:23:58.818Z,1014.11
2018-06-29T09:24:58.843Z,1014.10
2018-06-29T09:25:58.991Z,1014.09
2018-06-29T09:26:58.898Z,1014.09
2018-06-29T09:27:58.926Z,1014.05
2018-06-29T09:28:58.955Z,1014.03
2018-06-29T09:29:59.002Z,1013.99
2018-06-29T09:30:59.012Z,1013.96
2018-06-29T09:31:59.037Z,1014.01
2018-06-29T09:32:59.066Z,1013.96
2018-06-29T09:33:59.092Z,1013.94
2018-06-29T09:34:59.119Z,1013.95
2018-06-29T09:35:59.148Z,1013.93
2018-06-29T09:36:59.176Z,1013.92
2018-06-29T09:37:59.205Z,1013.93
2018-06-29T09:38:59.228Z,1013.93
2018-06-29T09:39:59.283Z,1013.94
2018-06-29T09:40:59.284Z,1013.93
2018-06-29T09:41:59.313Z,1013.91
2018-06-29T09:42:59.340Z,1013.93
2018-06-29T09:43:59.366Z,1013.92
2018-06-29T09:44:59.398Z,1013.92
2018-06-29T09:45:59.424Z,1013.95
2018-06-29T09:46:59.453Z,1013.90
2018-06-29T09:47:59.596Z,1013.92
2018-06-29T09:48:59.512Z,1013.96
2018-06-29T09:49:59.533Z,1013.91
2018-06-29T09:50:59.560Z,1013.90
2018-06-29T09:51:59.589Z,1013.91
2018-06-29T09:52:59.621Z,1013.88
2018-06-29T09:53:59.691Z,1013.86
2018-06-29T09:54:59.677Z,1013.81
2018-06-29T09:55:59.703Z,1013.81
2018-06-29T09:56:59.730Z,1013.82
2018-06-29T09:57:59.759Z,1013.78
2018-06-29T09:58:59.785Z,1013.76
2018-06-29T09:59:59.812Z,1013.76
2018-06-29T10:00:59.850Z,1013.72
2018-06-29T10:01:59.867Z,1013.70
2018-06-29T10:02:59.898Z,1013.67
2018-06-29T10:03:59.923Z,1013.74
2018-06-29T10:04:59.950Z,1013.73
2018-06-29T10:05:59.978Z,1013.71
2018-06-29T10:07:00.010Z,1013.68
2018-06-29T10:08:00.039Z,1013.67
2018-06-29T10:09:00.064Z,1013.71
2018-06-29T10:10:00.290Z,1013.74
2018-06-29T10:11:00.122Z,1013.71
2018-06-29T10:12:00.149Z,1013.67
2018-06-29T10:13:00.256Z,1013.67
2018-06-29T10:14:00.230Z,1013.65
2018-06-29T10:15:00.231Z,1013.64
2018-06-29T10:16:00.260Z,1013.66
2018-06-29T10:17:00.288Z,1013.67
2018-06-29T10:18:00.313Z,1013.59
2018-06-29T10:19:00.347Z,1013.63
2018-06-29T10:20:00.470Z,1013.61
2018-06-29T10:21:00.401Z,1013.64
2018-06-29T10:22:00.430Z,1013.57
2018-06-29T10:23:00.456Z,1013.66
2018-06-29T10:24:00.483Z,1013.65
2018-06-29T10:25:00.514Z,1013.65
2018-06-29T10:26:00.741Z,1013.63
2018-06-29T10:27:00.565Z,1013.62
2018-06-29T10:28:00.616Z,1013.54
2018-06-29T10:29:00.630Z,1013.51
2018-06-29T10:30:00.651Z,1013.50
2018-06-29T10:31:00.679Z,1013.46
2018-06-29T10:32:00.712Z,1013.49
2018-06-29T10:33:00.738Z,1013.48
2018-06-29T10:34:00.764Z,1013.49
2018-06-29T10:35:00.793Z,1013.51
2018-06-29T10:36:00.882Z,1013.43
2018-06-29T10:37:00.850Z,1013.48
2018-06-29T10:38:00.878Z,1013.46
2018-06-29T10:39:00.906Z,1013.45
2018-06-29T10:40:00.933Z,1013.45
2018-06-29T10:41:00.963Z,1013.41
2018-06-29T10:42:00.991Z,1013.44
2018-06-29T10:43:01.016Z,1013.46
2018-06-29T10:44:01.046Z,1013.44
2018-06-29T10:45:01.154Z,1013.41
2018-06-29T10:46:01.102Z,1013.39
2018-06-29T10:47:01.128Z,1013.37
2018-06-29T10:48:01.161Z,1013.37
2018-06-29T10:49:01.194Z,1013.36
2018-06-29T10:50:01.215Z,1013.40
2018-06-29T10:51:01.241Z,1013.37
2018-06-29T10:52:01.273Z,1013.38
2018-06-29T10:53:01.302Z,1013.36
2018-06-29T10:54:01.328Z,1013.36
2018-06-29T10:55:01.368Z,1013.28
2018-06-29T10:56:01.383Z,1013.26
2018-06-29T10:57:01.414Z,1013.23
2018-06-29T10:58:01.441Z,1013.28
2018-06-29T10:59:01.470Z,1013.27
2018-06-29T11:00:01.498Z,1013.23
2018-06-29T11:01:01.825Z,1013.25
2018-06-29T11:02:01.553Z,1013.25
2018-06-29T11:03:01.585Z,1013.23
2018-06-29T11:04:01.612Z,1013.18
2018-06-29T11:05:01.645Z,1013.17
2018-06-29T11:06:01.728Z,1013.13
2018-06-29T11:07:01.695Z,1013.18
2018-06-29T11:08:01.719Z,1013.15
2018-06-29T11:09:01.757Z,1013.17
2018-06-29T11:10:01.785Z,1013.10
2018-06-29T11:11:01.900Z,1013.08
2018-06-29T11:12:02.084Z,1013.14
2018-06-29T11:13:01.861Z,1013.15
2018-06-29T11:14:01.889Z,1013.10
2018-06-29T11:15:01.917Z,1013.05
2018-06-29T11:16:01.946Z,1013.08
2018-06-29T11:17:01.973Z,1013.08
2018-06-29T11:18:02.003Z,1013.04
2018-06-29T11:19:02.034Z,1013.05
2018-06-29T11:20:02.057Z,1013.04
2018-06-29T11:21:02.096Z,1013.03
2018-06-29T11:22:02.117Z,1013.06
2018-06-29T11:23:02.144Z,1013.02
2018-06-29T11:24:02.220Z,1012.98
2018-06-29T11:25:02.200Z,1013.03
2018-06-29T11:26:02.229Z,1013.05
2018-06-29T11:27:02.253Z,1013.00
2018-06-29T11:28:02.284Z,1013.01
2018-06-29T11:29:02.313Z,1012.97
2018-06-29T11:30:02.342Z,1013.00
2018-06-29T11:31:02.369Z,1012.98
2018-06-29T11:32:02.398Z,1013.00
2018-06-29T11:33:02.423Z,1012.97
2018-06-29T11:34:02.456Z,1012.95
2018-06-29T11:35:02.481Z,1012.99
2018-06-29T11:36:02.593Z,1012.93
2018-06-29T11:37:02.546Z,1013.01
2018-06-29T11:38:02.568Z,1013.04
2018-06-29T11:39:02.592Z,1012.99
2018-06-29T11:40:02.623Z,1012.98
2018-06-29T11:41:02.650Z,1012.97
2018-06-29T11:42:02.683Z,1012.93
2018-06-29T11:43:02.706Z,1012.91
2018-06-29T11:44:02.801Z,1012.88
2018-06-29T11:45:02.766Z,1012.89
2018-06-29T11:46:02.791Z,1012.87
2018-06-29T11:47:02.822Z,1012.85
2018-06-29T11:48:02.850Z,1012.86
2018-06-29T11:49:02.878Z,1012.92
2018-06-29T11:50:02.908Z,1012.96
2018-06-29T11:51:02.985Z,1012.86
2018-06-29T11:52:02.965Z,1012.81
2018-06-29T11:53:02.993Z,1012.81
2018-06-29T11:54:03.023Z,1012.79
2018-06-29T11:55:03.047Z,1012.78
2018-06-29T11:56:03.079Z,1012.79
2018-06-29T11:57:03.108Z,1012.80
2018-06-29T11:58:03.137Z,1012.78
2018-06-29T11:59:03.162Z,1012.84
2018-06-29T12:00:03.192Z,1012.75
2018-06-29T12:01:03.220Z,1012.82
2018-06-29T12:02:03.256Z,1012.78
2018-06-29T12:03:03.279Z,1012.79
2018-06-29T12:04:03.312Z,1012.75
2018-06-29T12:05:03.337Z,1012.77
2018-06-29T12:06:03.363Z,1012.80